createdAt,value
2023-04-04T00:00:24.551Z,1.60
2023-04-04T00:03:27.702Z,1.25
2023-04-04T00:06:29.784Z,1.33
2023-04-04T00:09:31.637Z,1.60
2023-04-04T00:12:34.052Z,1.52
2023-04-04T00:15:36.706Z,1.48
2023-04-04T00:18:38.917Z,1.63
2023-04-04T00:21:40.976Z,1.40
2023-04-04T00:24:42.801Z,1.35
2023-04-04T00:27:44.580Z,1.67
2023-04-04T00:30:47.176Z,1.40
2023-04-04T00:33:48.996Z,1.70
2023-04-04T00:36:50.787Z,1.10
2023-04-04T00:39:52.540Z,1.50
2023-04-04T00:42:54.686Z,0.90
2023-04-04T00:45:56.742Z,0.95
2023-04-04T00:48:58.554Z,1.42
2023-04-04T00:52:01.326Z,1.03
2023-04-04T00:55:04.137Z,1.85
2023-04-04T00:58:07.445Z,1.10
2023-04-04T01:01:12.764Z,1.25
2023-04-04T01:04:15.773Z,1.30
2023-04-04T01:07:19.559Z,1.30
2023-04-04T01:10:22.162Z,1.25
2023-04-04T01:13:24.157Z,1.00
2023-04-04T01:16:26.405Z,1.30
2023-04-04T01:19:35.585Z,1.55
2023-04-04T01:22:40.884Z,1.00
2023-04-04T01:25:42.936Z,0.93
2023-04-04T01:28:44.865Z,1.38
2023-04-04T01:32:00.769Z,0.77
2023-04-04T01:35:10.600Z,0.85
2023-04-04T01:38:47.320Z,0.93
2023-04-04T01:41:49.443Z,1.23
2023-04-04T01:44:57.275Z,1.20
2023-04-04T01:48:02.724Z,0.63
2023-04-04T01:51:04.970Z,1.40
2023-04-04T01:54:06.897Z,1.00
2023-04-04T01:57:09.664Z,1.30
2023-04-04T02:00:12.610Z,1.05
2023-04-04T02:03:14.522Z,1.27
2023-04-04T02:06:17.060Z,1.25
2023-04-04T02:09:19.224Z,1.33
2023-04-04T02:12:22.502Z,1.17
2023-04-04T02:15:25.533Z,1.40
2023-04-04T02:18:28.898Z,0.88
2023-04-04T02:21:31.069Z,1.42
2023-04-04T02:24:33.269Z,1.30
2023-04-04T02:27:35.667Z,1.50
2023-04-04T02:30:37.816Z,1.67
2023-04-04T02:33:39.645Z,1.15
2023-04-04T02:36:42.825Z,1.48
2023-04-04T02:39:44.946Z,1.30
2023-04-04T02:42:47.948Z,0.98
2023-04-04T02:45:49.847Z,1.45
2023-04-04T02:48:53.289Z,0.90
2023-04-04T02:51:59.474Z,1.10
2023-04-04T02:55:28.085Z,0.97
2023-04-04T02:58:32.468Z,1.83
2023-04-04T03:01:34.720Z,1.20
2023-04-04T03:04:36.851Z,2.00
2023-04-04T03:07:38.711Z,1.70
2023-04-04T03:10:41.866Z,1.50
2023-04-04T03:13:44.079Z,1.58
2023-04-04T03:16:46.589Z,1.20
2023-04-04T03:19:48.911Z,1.50
2023-04-04T03:22:50.885Z,1.10
2023-04-04T03:25:55.258Z,1.50
2023-04-04T03:28:57.624Z,1.40
2023-04-04T03:31:59.407Z,1.13
2023-04-04T03:35:02.272Z,1.83
2023-04-04T03:38:04.225Z,1.42
2023-04-04T03:41:07.416Z,1.10
2023-04-04T03:44:10.381Z,1.50
2023-04-04T03:47:12.221Z,1.60
2023-04-04T03:50:14.539Z,1.70
2023-04-04T03:53:16.678Z,1.67
2023-04-04T03:56:18.948Z,1.17
2023-04-04T03:59:21.584Z,1.15
2023-04-04T04:02:23.407Z,1.65
2023-04-04T04:05:27.438Z,1.67
2023-04-04T04:08:29.582Z,1.55
2023-04-04T04:11:31.514Z,1.50
2023-04-04T04:14:33.652Z,1.27
2023-04-04T04:17:40.483Z,0.80
2023-04-04T04:20:42.968Z,1.42
2023-04-04T04:23:45.011Z,1.70
2023-04-04T04:26:47.114Z,1.53
2023-04-04T04:29:49.242Z,1.90
2023-04-04T04:32:51.264Z,1.60
2023-04-04T04:35:53.666Z,1.50
2023-04-04T04:38:55.584Z,2.10
2023-04-04T04:41:57.509Z,1.50
2023-04-04T04:44:59.300Z,1.23
2023-04-04T04:48:04.402Z,1.48
2023-04-04T04:51:06.897Z,1.90
2023-04-04T04:54:08.874Z,1.25
2023-04-04T04:57:10.833Z,1.77
2023-04-04T05:00:13.788Z,1.00
2023-04-04T05:03:16.342Z,1.30
2023-04-04T05:06:18.249Z,1.17
2023-04-04T05:09:20.112Z,1.23
2023-04-04T05:12:21.936Z,1.40
2023-04-04T05:15:26.003Z,0.90
2023-04-04T05:18:28.724Z,1.60
2023-04-04T05:21:30.846Z,1.02
2023-04-04T05:24:32.924Z,1.33
2023-04-04T05:27:35.256Z,1.30
2023-04-04T05:30:39.363Z,1.50
2023-04-04T05:33:41.906Z,1.88
2023-04-04T05:36:44.001Z,1.90
2023-04-04T05:39:46.435Z,1.35
2023-04-04T05:42:58.329Z,1.37
2023-04-04T05:46:01.300Z,1.70
2023-04-04T05:49:04.172Z,1.50
2023-04-04T05:52:06.080Z,2.35
2023-04-04T05:55:08.459Z,1.63
2023-04-04T05:58:15.084Z,1.73
2023-04-04T06:01:30.239Z,1.25
2023-04-04T06:04:52.579Z,1.67
2023-04-04T06:22:03.853Z,1.48
2023-04-04T06:34:25.875Z,1.92
2023-04-04T06:54:32.419Z,1.90
2023-04-04T07:17:43.514Z,1.70
2023-04-04T07:25:09.287Z,1.33
2023-04-04T07:53:32.205Z,1.83
2023-04-04T07:56:53.704Z,1.75
2023-04-04T08:05:23.982Z,2.00
2023-04-04T08:12:52.268Z,1.63
2023-04-04T08:16:02.239Z,1.88
2023-04-04T08:19:04.824Z,1.05
2023-04-04T08:22:10.198Z,1.57
2023-04-04T08:25:15.710Z,1.25
2023-04-04T08:29:31.647Z,1.40
2023-04-04T08:32:34.818Z,1.60
2023-04-04T08:35:47.148Z,2.17
2023-04-04T08:38:49.602Z,1.83
2023-04-04T08:42:02.030Z,1.65
2023-04-04T08:45:12.864Z,1.27
2023-04-04T08:48:35.400Z,1.63
2023-04-04T08:51:40.244Z,1.88
2023-04-04T08:54:55.559Z,1.53
2023-04-04T08:58:06.840Z,2.00
2023-04-04T09:01:20.131Z,1.67
2023-04-04T09:04:48.662Z,1.85
2023-04-04T09:08:10.734Z,1.83
2023-04-04T09:13:15.991Z,1.50
2023-04-04T09:15:21.928Z,1.20
2023-04-04T09:18:28.742Z,1.50
2023-04-04T09:30:13.709Z,1.97
2023-04-04T09:44:27.323Z,1.30
2023-04-04T09:49:04.538Z,1.90
2023-04-04T09:52:45.650Z,1.63
2023-04-04T09:57:07.522Z,1.88
2023-04-04T10:05:07.654Z,1.20
2023-04-04T10:09:01.920Z,1.80
2023-04-04T10:12:39.244Z,1.60
2023-04-04T10:15:58.886Z,1.90
2023-04-04T10:19:26.528Z,1.50
2023-04-04T10:22:31.370Z,2.22
2023-04-04T10:25:43.496Z,1.50
2023-04-04T10:28:49.804Z,1.80
2023-04-04T10:32:03.388Z,2.05
2023-04-04T10:40:01.942Z,1.42
2023-04-04T10:43:54.849Z,1.27
2023-04-04T10:47:19.950Z,1.92
2023-04-04T10:50:45.457Z,1.50
2023-04-04T10:54:25.623Z,1.40
2023-04-04T11:01:58.028Z,0.90
2023-04-04T11:05:25.640Z,1.75
2023-04-04T11:08:37.730Z,1.30
2023-04-04T11:12:11.496Z,1.80
2023-04-04T11:15:23.625Z,1.15
2023-04-04T11:18:40.640Z,1.10
2023-04-04T11:21:54.468Z,1.40
2023-04-04T11:25:41.059Z,1.83
2023-04-04T11:29:02.633Z,2.00
2023-04-04T11:33:25.620Z,1.33
2023-04-04T11:41:17.332Z,1.60
2023-04-04T11:48:28.569Z,1.48
2023-04-04T11:56:22.086Z,1.60
2023-04-04T12:00:14.017Z,1.50
2023-04-04T12:14:45.768Z,2.10
2023-04-04T12:18:20.352Z,1.73
2023-04-04T12:22:20.218Z,1.70
2023-04-04T12:25:42.134Z,1.65
2023-04-04T12:29:04.489Z,2.25
2023-04-04T12:32:11.081Z,1.70
2023-04-04T12:35:16.430Z,1.42
2023-04-04T12:38:18.894Z,1.42
2023-04-04T12:41:39.733Z,1.90
2023-04-04T12:44:45.260Z,1.92
2023-04-04T12:47:56.125Z,1.60
2023-04-04T12:51:00.205Z,1.52
2023-04-04T12:54:05.877Z,1.88
2023-04-04T12:57:08.460Z,1.77
2023-04-04T13:00:41.808Z,1.70
2023-04-04T13:03:46.368Z,2.07
2023-04-04T13:06:54.517Z,1.92
2023-04-04T13:10:05.683Z,2.05
2023-04-04T13:13:09.373Z,1.90
2023-04-04T13:16:14.362Z,1.75
2023-04-04T13:19:19.299Z,1.67
2023-04-04T13:22:21.556Z,1.25
2023-04-04T13:25:24.301Z,1.20
2023-04-04T13:28:27.539Z,1.90
2023-04-04T13:31:32.483Z,1.42
2023-04-04T13:34:36.295Z,1.50
2023-04-04T13:37:38.829Z,1.35
2023-04-04T13:40:59.280Z,1.58
2023-04-04T13:44:01.570Z,1.52
2023-04-04T13:47:03.919Z,1.73
2023-04-04T13:50:10.291Z,1.60
2023-04-04T13:53:13.811Z,1.77
2023-04-04T13:56:23.185Z,2.15
2023-04-04T13:59:26.074Z,1.38
2023-04-04T14:02:29.148Z,1.73
2023-04-04T14:05:37.760Z,1.90
2023-04-04T14:08:42.987Z,1.13
2023-04-04T14:11:46.661Z,1.40
2023-04-04T14:14:48.903Z,2.05
2023-04-04T14:17:51.140Z,1.70
2023-04-04T14:20:53.600Z,1.50
2023-04-04T14:23:58.630Z,1.75
2023-04-04T14:27:01.552Z,1.83
2023-04-04T14:30:08.578Z,1.63
2023-04-04T14:33:11.707Z,1.90
2023-04-04T14:36:15.356Z,2.07
2023-04-04T14:39:37.563Z,1.17
2023-04-04T14:42:39.830Z,1.88
2023-04-04T14:45:42.455Z,1.50
2023-04-04T14:48:45.008Z,1.60
2023-04-04T14:51:47.199Z,2.07
2023-04-04T14:54:49.504Z,1.52
2023-04-04T14:58:02.394Z,1.92
2023-04-04T15:01:06.273Z,1.88
2023-04-04T15:04:09.281Z,1.95
2023-04-04T15:07:11.483Z,1.80
2023-04-04T15:10:17.464Z,1.67
2023-04-04T15:13:19.799Z,2.05
2023-04-04T15:16:22.518Z,1.50
2023-04-04T15:19:24.918Z,1.92
2023-04-04T15:22:27.590Z,1.47
2023-04-04T15:25:31.761Z,1.85
2023-04-04T15:28:35.263Z,1.80
2023-04-04T15:31:40.157Z,1.60
2023-04-04T15:34:42.918Z,1.40
2023-04-04T15:37:46.555Z,2.00
2023-04-04T15:40:53.916Z,1.75
2023-04-04T15:44:02.500Z,1.83
2023-04-04T15:47:04.962Z,1.60
2023-04-04T15:50:11.973Z,1.88
2023-04-04T15:53:17.896Z,1.80
2023-04-04T15:56:20.768Z,1.63
2023-04-04T15:59:25.829Z,1.65
2023-04-04T16:02:36.462Z,1.85
2023-04-04T16:05:40.926Z,1.80
2023-04-04T16:08:43.502Z,2.30
2023-04-04T16:11:52.174Z,1.70
2023-04-04T16:15:14.161Z,1.90
2023-04-04T16:18:18.875Z,2.30
2023-04-04T16:21:52.267Z,1.90
2023-04-04T16:24:54.426Z,2.33
2023-04-04T16:27:56.470Z,2.38
2023-04-04T16:31:00.432Z,2.10
2023-04-04T16:34:04.881Z,2.28
2023-04-04T16:37:07.237Z,2.35
2023-04-04T16:40:09.779Z,1.63
2023-04-04T16:43:12.038Z,1.77
2023-04-04T16:46:14.335Z,2.30
2023-04-04T16:49:16.821Z,2.30
2023-04-04T16:52:18.968Z,2.83
2023-04-04T16:55:21.935Z,2.10
2023-04-04T16:58:24.199Z,2.50
2023-04-04T17:01:27.227Z,2.70
2023-04-04T17:04:29.592Z,2.50
2023-04-04T17:07:31.986Z,2.45
2023-04-04T17:10:35.273Z,2.30
2023-04-04T17:13:37.577Z,2.33
2023-04-04T17:16:39.441Z,2.42
2023-04-04T17:19:41.660Z,2.78
2023-04-04T17:22:45.055Z,2.92
2023-04-04T17:25:47.060Z,2.43
2023-04-04T17:28:49.134Z,3.17
2023-04-04T17:31:52.059Z,3.35
2023-04-04T17:34:54.058Z,3.20
2023-04-04T17:37:57.676Z,2.80
2023-04-04T17:41:04.476Z,2.60
2023-04-04T17:44:06.524Z,2.35
2023-04-04T17:47:08.751Z,3.13
2023-04-04T17:50:11.095Z,2.88
2023-04-04T17:53:13.548Z,2.60
2023-04-04T17:56:16.023Z,2.67
2023-04-04T17:59:18.923Z,1.92
2023-04-04T18:02:21.206Z,2.25
2023-04-04T18:05:23.768Z,2.40
2023-04-04T18:08:26.329Z,2.88
2023-04-04T18:11:28.729Z,2.63
2023-04-04T18:14:30.842Z,2.60
2023-04-04T18:17:33.576Z,2.70
2023-04-04T18:20:36.346Z,2.35
2023-04-04T18:23:38.727Z,2.10
2023-04-04T18:26:40.980Z,1.80
2023-04-04T18:29:43.434Z,2.15
2023-04-04T18:32:45.612Z,2.00
2023-04-04T18:35:54.646Z,2.40
2023-04-04T18:38:57.044Z,3.03
2023-04-04T18:41:59.392Z,2.20
2023-04-04T18:45:02.779Z,2.42
2023-04-04T18:48:06.219Z,2.47
2023-04-04T18:51:08.652Z,3.28
2023-04-04T18:54:11.707Z,2.60
2023-04-04T18:57:14.779Z,2.80
2023-04-04T19:00:17.295Z,3.65
2023-04-04T19:03:23.410Z,3.00
2023-04-04T19:06:29.426Z,2.95
2023-04-04T19:09:32.460Z,1.98
2023-04-04T19:12:35.093Z,2.67
2023-04-04T19:15:37.319Z,2.40
2023-04-04T19:18:39.872Z,2.60
2023-04-04T19:21:42.541Z,2.28
2023-04-04T19:24:44.886Z,3.22
2023-04-04T19:27:47.322Z,1.47
2023-04-04T19:30:50.132Z,1.90
2023-04-04T19:33:56.012Z,2.00
2023-04-04T19:36:58.467Z,2.40
2023-04-04T19:40:01.083Z,1.92
2023-04-04T19:43:03.974Z,2.30
2023-04-04T19:46:11.357Z,2.75
2023-04-04T19:49:14.752Z,2.88
2023-04-04T19:52:22.489Z,2.30
2023-04-04T19:55:40.841Z,3.10
2023-04-04T19:58:43.698Z,2.33
2023-04-04T20:01:59.787Z,1.30
2023-04-04T20:05:22.758Z,1.75
2023-04-04T20:08:37.869Z,1.85
2023-04-04T20:11:40.443Z,3.22
2023-04-04T20:14:42.632Z,2.50
2023-04-04T20:17:45.017Z,2.53
2023-04-04T20:20:56.757Z,2.95
2023-04-04T20:24:05.208Z,2.72
2023-04-04T20:27:07.451Z,3.13
2023-04-04T20:30:14.273Z,3.20
2023-04-04T20:33:39.497Z,2.70
2023-04-04T20:36:42.198Z,2.95
2023-04-04T20:39:58.068Z,2.85
2023-04-04T20:43:00.501Z,3.40
2023-04-04T20:46:02.925Z,2.73
2023-04-04T20:49:05.448Z,2.60
2023-04-04T20:52:07.929Z,2.15
2023-04-04T20:55:11.227Z,3.42
2023-04-04T20:58:20.795Z,3.22
2023-04-04T21:01:22.880Z,3.27
2023-04-04T21:04:26.900Z,2.67
2023-04-04T21:07:36.049Z,2.75
2023-04-04T21:10:51.479Z,2.53
2023-04-04T21:13:54.669Z,2.85
2023-04-04T21:17:15.666Z,2.27
2023-04-04T21:21:00.553Z,2.45
2023-04-04T21:24:22.108Z,2.03
2023-04-04T21:28:18.580Z,2.35
2023-04-04T21:36:14.600Z,2.50
2023-04-04T21:39:42.416Z,2.15
2023-04-04T21:43:32.005Z,3.05
2023-04-04T21:46:57.543Z,2.45
2023-04-04T21:50:32.901Z,3.00
2023-04-04T21:53:42.117Z,2.80
2023-04-04T21:57:11.321Z,2.88
2023-04-04T22:00:20.052Z,3.17
2023-04-04T22:03:40.926Z,2.83
2023-04-04T22:06:58.430Z,2.38
2023-04-04T22:10:11.811Z,2.90
2023-04-04T22:13:22.639Z,2.70
2023-04-04T22:16:46.394Z,3.05
2023-04-04T22:20:10.998Z,2.53
2023-04-04T22:23:56.742Z,3.25
2023-04-04T22:27:16.410Z,1.93
2023-04-04T22:30:27.127Z,2.25
2023-04-04T22:34:17.900Z,3.30
2023-04-04T22:42:00.877Z,1.98
2023-04-04T22:45:39.261Z,2.67
2023-04-04T22:53:13.103Z,2.60
2023-04-04T22:57:11.330Z,2.35
2023-04-04T23:01:14.100Z,2.45
2023-04-04T23:08:31.004Z,3.30
2023-04-04T23:12:48.081Z,3.67
2023-04-04T23:20:33.786Z,3.25
2023-04-04T23:24:00.505Z,1.83
2023-04-04T23:28:13.063Z,3.10
2023-04-04T23:31:51.032Z,2.55
2023-04-04T23:39:14.876Z,3.22
2023-04-04T23:49:56.028Z,2.58
2023-04-04T23:53:53.853Z,2.22
